Terminal Aerodrome Forecast
Issued by NWS Mt. Holly, NJ

Home | Current Version | Previous Version | Text Only | Print | Product List | Glossary On
Versions: 1 2 3 4 5 6 7 8 9 10 11 12 13 14 15 16 17 18 19 20
419
FTUS41 KPHI 151120
TAFTTN
TAF
KTTN 151120Z 1512/1612 VRB04KT P6SM BKN150
     FM151800 VRB03KT P6SM OVC025
      TEMPO 1519/1523 3SM -SN OVC015
     FM160300 28006KT P6SM SCT080=

USA.gov is the U.S. government's official web portal to all federal, state and local government web resources and services.